createdAt,value
2024-01-17T00:06:16.581Z,95853.81
2024-01-17T00:16:37.626Z,95835.28
2024-01-17T00:26:58.687Z,95817.81
2024-01-17T00:37:20.001Z,95815.19
2024-01-17T00:47:41.018Z,95795.75
2024-01-17T00:58:01.702Z,95808.53
2024-01-17T01:08:22.603Z,95802.69
2024-01-17T01:18:43.340Z,95793.38
2024-01-17T01:29:04.191Z,95789.50
2024-01-17T01:39:24.961Z,95772.47
2024-01-17T01:49:48.691Z,95767.19
2024-01-17T02:00:10.850Z,95760.44
2024-01-17T02:10:36.317Z,95733.69
2024-01-17T02:20:57.659Z,95721.69
2024-01-17T02:31:18.870Z,95692.59
2024-01-17T02:41:39.989Z,95692.16
2024-01-17T02:52:01.150Z,95667.06
2024-01-17T03:02:22.020Z,95666.38
2024-01-17T03:12:44.080Z,95655.97
2024-01-17T03:23:05.085Z,95669.44
2024-01-17T03:33:25.933Z,95647.09
2024-01-17T03:43:47.223Z,95635.56
2024-01-17T03:54:09.431Z,95624.31
2024-01-17T04:04:30.540Z,95605.50
2024-01-17T04:14:51.614Z,95580.47
2024-01-17T04:25:12.405Z,95566.25
2024-01-17T04:35:33.263Z,95556.91
2024-01-17T04:45:54.089Z,95546.63
2024-01-17T04:56:17.124Z,95536.25
2024-01-17T05:06:38.359Z,95518.78
2024-01-17T05:16:59.386Z,95506.13
2024-01-17T05:27:20.542Z,95481.81
2024-01-17T05:37:42.455Z,95469.16
2024-01-17T05:48:03.951Z,95447.00
2024-01-17T05:58:24.743Z,95438.69
2024-01-17T06:08:45.721Z,95426.94
2024-01-17T06:19:06.767Z,95415.91
2024-01-17T06:29:27.731Z,95399.25
2024-01-17T06:39:48.887Z,95397.41
2024-01-17T06:50:10.506Z,95374.81
2024-01-17T07:00:34.540Z,95375.22
2024-01-17T07:10:56.599Z,95360.69
2024-01-17T07:21:17.727Z,95352.75
2024-01-17T07:31:39.956Z,95325.38
2024-01-17T07:42:00.918Z,95304.03
2024-01-17T07:52:21.732Z,95292.66
2024-01-17T08:02:42.929Z,95267.97
2024-01-17T08:13:04.362Z,95238.78
2024-01-17T08:23:25.655Z,95214.84
2024-01-17T08:33:47.028Z,95217.38
2024-01-17T08:44:08.054Z,95193.16
2024-01-17T08:54:29.055Z,95173.00
2024-01-17T09:04:50.350Z,95184.88
2024-01-17T09:15:11.756Z,95177.88
2024-01-17T09:25:32.507Z,95179.69
2024-01-17T09:36:01.608Z,95148.53
2024-01-17T09:46:24.117Z,95123.53
2024-01-17T09:56:47.601Z,95106.44
2024-01-17T10:07:09.041Z,95073.84
2024-01-17T10:17:30.235Z,95054.38
2024-01-17T10:27:51.304Z,95028.06
2024-01-17T10:38:12.465Z,95010.44
2024-01-17T10:48:33.387Z,94982.75
2024-01-17T10:58:56.690Z,94969.88
2024-01-17T11:09:19.583Z,94945.66
2024-01-17T11:19:44.614Z,94923.00
2024-01-17T11:30:32.522Z,94908.41
2024-01-17T11:40:54.503Z,94880.41
2024-01-17T11:51:16.559Z,94867.72
2024-01-17T12:01:37.284Z,94839.50
2024-01-17T12:12:03.123Z,94793.66
2024-01-17T12:22:23.850Z,94773.44
2024-01-17T12:32:44.858Z,94745.00
2024-01-17T12:43:06.035Z,94748.59
2024-01-17T12:53:29.180Z,94737.69
2024-01-17T13:04:07.291Z,94719.44
2024-01-17T13:14:31.115Z,94679.81
2024-01-17T13:24:54.058Z,94660.41
2024-01-17T13:35:18.070Z,94644.56
2024-01-17T13:45:39.182Z,94616.09
2024-01-17T13:56:01.554Z,94608.38
2024-01-17T14:06:23.335Z,94578.16
2024-01-17T14:16:44.612Z,94558.00
2024-01-17T14:27:06.273Z,94550.63
2024-01-17T14:37:26.994Z,94538.97
2024-01-17T14:47:50.478Z,94521.88
2024-01-17T14:58:11.123Z,94502.09
2024-01-17T15:08:33.019Z,94483.22
2024-01-17T15:18:54.090Z,94467.75
2024-01-17T15:29:15.835Z,94458.31
2024-01-17T15:39:37.769Z,94424.81
2024-01-17T15:49:59.193Z,94393.16
2024-01-17T16:00:20.358Z,94383.22
2024-01-17T16:10:43.085Z,94348.28
2024-01-17T16:21:04.653Z,94328.88
2024-01-17T16:31:25.590Z,94321.19
2024-01-17T16:41:47.859Z,94298.53
2024-01-17T16:52:09.049Z,94286.28
2024-01-17T17:02:32.776Z,94267.53
2024-01-17T17:12:53.905Z,94266.19
2024-01-17T17:23:14.917Z,94257.03
2024-01-17T17:33:35.979Z,94240.97
2024-01-17T17:43:57.035Z,94211.16
2024-01-17T17:54:17.916Z,94218.00
2024-01-17T18:04:38.836Z,94210.28
2024-01-17T18:14:59.934Z,94188.13
2024-01-17T18:25:20.923Z,94184.63
2024-01-17T18:35:41.898Z,94168.53
2024-01-17T18:46:02.831Z,94144.47
2024-01-17T18:56:25.675Z,94127.59
2024-01-17T19:06:46.801Z,94107.81
2024-01-17T19:17:08.090Z,94091.47
2024-01-17T19:27:30.038Z,94088.91
2024-01-17T19:37:50.914Z,94075.47
2024-01-17T19:48:11.866Z,94066.03
2024-01-17T19:58:32.683Z,94065.78
2024-01-17T20:08:53.662Z,94061.06
2024-01-17T20:19:15.081Z,94075.28
2024-01-17T20:29:36.217Z,94070.63
2024-01-17T20:39:56.965Z,94052.00
2024-01-17T20:50:20.348Z,94028.19
2024-01-17T21:00:41.061Z,94038.28
2024-01-17T21:11:01.829Z,94037.69
2024-01-17T21:21:22.764Z,94015.72
2024-01-17T21:31:44.016Z,94022.41
2024-01-17T21:42:06.016Z,94034.50
2024-01-17T21:52:27.423Z,94044.13
2024-01-17T22:02:48.294Z,94053.91
2024-01-17T22:13:09.112Z,94054.28
2024-01-17T22:23:29.955Z,94049.22
2024-01-17T22:33:50.924Z,94050.38
2024-01-17T22:44:17.411Z,94036.41
2024-01-17T22:54:39.262Z,94039.81
2024-01-17T23:05:00.249Z,94049.34
2024-01-17T23:15:21.704Z,94042.44
2024-01-17T23:25:42.733Z,94033.78
2024-01-17T23:36:03.839Z,94027.03
2024-01-17T23:46:24.965Z,94018.97
2024-01-17T23:56:46.151Z,94025.25
